sensor_id;sensor_type;location;lat;lon;timestamp;P1;durP1;ratioP1;P2;durP2;ratioP2
24084;SDS011;12268;52.110;5.548;2023-07-29T00:02:04;5.93;;;3.97;;
24084;SDS011;12268;52.110;5.548;2023-07-29T00:04:29;6.93;;;3.83;;
24084;SDS011;12268;52.110;5.548;2023-07-29T00:06:55;5.60;;;3.95;;
24084;SDS011;12268;52.110;5.548;2023-07-29T00:09:21;6.35;;;3.60;;
24084;SDS011;12268;52.110;5.548;2023-07-29T00:11:46;6.95;;;3.90;;
24084;SDS011;12268;52.110;5.548;2023-07-29T00:14:12;4.60;;;3.22;;
24084;SDS011;12268;52.110;5.548;2023-07-29T00:16:37;6.97;;;3.40;;
24084;SDS011;12268;52.110;5.548;2023-07-29T00:19:03;6.13;;;3.30;;
24084;SDS011;12268;52.110;5.548;2023-07-29T00:21:28;7.10;;;3.60;;
24084;SDS011;12268;52.110;5.548;2023-07-29T00:23:54;8.05;;;3.38;;
24084;SDS011;12268;52.110;5.548;2023-07-29T00:26:22;4.65;;;3.28;;
24084;SDS011;12268;52.110;5.548;2023-07-29T00:28:48;8.85;;;3.58;;
24084;SDS011;12268;52.110;5.548;2023-07-29T00:31:13;6.07;;;3.50;;
24084;SDS011;12268;52.110;5.548;2023-07-29T00:33:39;6.18;;;3.60;;
24084;SDS011;12268;52.110;5.548;2023-07-29T00:36:04;4.88;;;2.95;;
24084;SDS011;12268;52.110;5.548;2023-07-29T00:38:30;7.60;;;3.20;;
24084;SDS011;12268;52.110;5.548;2023-07-29T00:40:56;3.75;;;3.03;;
24084;SDS011;12268;52.110;5.548;2023-07-29T00:43:22;5.72;;;3.60;;
24084;SDS011;12268;52.110;5.548;2023-07-29T00:45:48;5.97;;;3.85;;
24084;SDS011;12268;52.110;5.548;2023-07-29T00:48:14;5.28;;;3.35;;
24084;SDS011;12268;52.110;5.548;2023-07-29T00:50:40;6.00;;;3.40;;
24084;SDS011;12268;52.110;5.548;2023-07-29T00:53:06;8.07;;;3.95;;
24084;SDS011;12268;52.110;5.548;2023-07-29T00:55:32;8.88;;;3.80;;
24084;SDS011;12268;52.110;5.548;2023-07-29T00:57:57;7.85;;;3.95;;
24084;SDS011;12268;52.110;5.548;2023-07-29T01:00:23;6.68;;;4.10;;
24084;SDS011;12268;52.110;5.548;2023-07-29T01:02:49;7.72;;;4.35;;
24084;SDS011;12268;52.110;5.548;2023-07-29T01:05:16;6.70;;;4.43;;
24084;SDS011;12268;52.110;5.548;2023-07-29T01:07:51;7.63;;;4.15;;
24084;SDS011;12268;52.110;5.548;2023-07-29T01:13:41;6.32;;;4.15;;
24084;SDS011;12268;52.110;5.548;2023-07-29T01:16:41;8.20;;;4.57;;
24084;SDS011;12268;52.110;5.548;2023-07-29T01:19:08;7.65;;;4.20;;
24084;SDS011;12268;52.110;5.548;2023-07-29T01:21:59;7.18;;;4.10;;
24084;SDS011;12268;52.110;5.548;2023-07-29T01:24:26;10.00;;;4.25;;
24084;SDS011;12268;52.110;5.548;2023-07-29T01:26:51;7.90;;;4.68;;
24084;SDS011;12268;52.110;5.548;2023-07-29T01:29:17;7.43;;;4.75;;
24084;SDS011;12268;52.110;5.548;2023-07-29T01:31:43;7.80;;;4.72;;
24084;SDS011;12268;52.110;5.548;2023-07-29T01:34:17;12.05;;;5.25;;
24084;SDS011;12268;52.110;5.548;2023-07-29T01:36:51;9.23;;;5.13;;
24084;SDS011;12268;52.110;5.548;2023-07-29T01:39:19;10.15;;;5.70;;
24084;SDS011;12268;52.110;5.548;2023-07-29T01:41:47;8.75;;;4.82;;
24084;SDS011;12268;52.110;5.548;2023-07-29T01:44:13;9.75;;;5.57;;
24084;SDS011;12268;52.110;5.548;2023-07-29T01:46:39;11.98;;;5.57;;
24084;SDS011;12268;52.110;5.548;2023-07-29T01:49:05;10.30;;;5.50;;
24084;SDS011;12268;52.110;5.548;2023-07-29T01:51:30;10.85;;;6.03;;
24084;SDS011;12268;52.110;5.548;2023-07-29T01:53:56;12.63;;;6.63;;
24084;SDS011;12268;52.110;5.548;2023-07-29T01:56:24;10.63;;;6.40;;
24084;SDS011;12268;52.110;5.548;2023-07-29T01:58:49;8.93;;;6.03;;
24084;SDS011;12268;52.110;5.548;2023-07-29T02:01:15;10.35;;;6.40;;
24084;SDS011;12268;52.110;5.548;2023-07-29T02:03:40;12.90;;;7.30;;
24084;SDS011;12268;52.110;5.548;2023-07-29T02:06:06;10.32;;;7.10;;
24084;SDS011;12268;52.110;5.548;2023-07-29T02:08:31;13.40;;;7.55;;
24084;SDS011;12268;52.110;5.548;2023-07-29T02:10:57;11.88;;;6.75;;
24084;SDS011;12268;52.110;5.548;2023-07-29T02:13:22;12.40;;;7.60;;
24084;SDS011;12268;52.110;5.548;2023-07-29T02:15:48;12.65;;;7.82;;
24084;SDS011;12268;52.110;5.548;2023-07-29T02:18:13;15.65;;;9.07;;
24084;SDS011;12268;52.110;5.548;2023-07-29T02:20:39;15.30;;;8.70;;
24084;SDS011;12268;52.110;5.548;2023-07-29T02:23:05;13.77;;;8.63;;
24084;SDS011;12268;52.110;5.548;2023-07-29T02:25:31;18.05;;;8.82;;
24084;SDS011;12268;52.110;5.548;2023-07-29T02:27:59;19.52;;;9.40;;
24084;SDS011;12268;52.110;5.548;2023-07-29T02:30:25;16.52;;;9.35;;
24084;SDS011;12268;52.110;5.548;2023-07-29T02:32:50;14.73;;;9.38;;
24084;SDS011;12268;52.110;5.548;2023-07-29T02:35:16;15.80;;;9.63;;
24084;SDS011;12268;52.110;5.548;2023-07-29T02:37:41;16.75;;;10.05;;
24084;SDS011;12268;52.110;5.548;2023-07-29T02:40:07;14.82;;;10.07;;
24084;SDS011;12268;52.110;5.548;2023-07-29T02:42:33;17.98;;;9.35;;
24084;SDS011;12268;52.110;5.548;2023-07-29T02:44:59;15.73;;;10.20;;
24084;SDS011;12268;52.110;5.548;2023-07-29T02:47:24;18.33;;;10.25;;
24084;SDS011;12268;52.110;5.548;2023-07-29T02:49:50;19.77;;;10.70;;
24084;SDS011;12268;52.110;5.548;2023-07-29T02:52:15;16.67;;;9.93;;
24084;SDS011;12268;52.110;5.548;2023-07-29T02:54:41;15.95;;;9.75;;
24084;SDS011;12268;52.110;5.548;2023-07-29T02:57:06;21.27;;;10.43;;
24084;SDS011;12268;52.110;5.548;2023-07-29T02:59:32;17.30;;;9.50;;
24084;SDS011;12268;52.110;5.548;2023-07-29T03:01:57;15.88;;;9.93;;
24084;SDS011;12268;52.110;5.548;2023-07-29T03:04:23;17.65;;;9.63;;
24084;SDS011;12268;52.110;5.548;2023-07-29T03:06:48;14.35;;;9.90;;
24084;SDS011;12268;52.110;5.548;2023-07-29T03:09:14;17.23;;;9.45;;
24084;SDS011;12268;52.110;5.548;2023-07-29T03:11:39;20.48;;;9.40;;
24084;SDS011;12268;52.110;5.548;2023-07-29T03:14:05;16.20;;;9.50;;
24084;SDS011;12268;52.110;5.548;2023-07-29T03:16:31;15.55;;;9.40;;
24084;SDS011;12268;52.110;5.548;2023-07-29T03:18:56;16.38;;;10.13;;
24084;SDS011;12268;52.110;5.548;2023-07-29T03:21:22;14.90;;;9.02;;
24084;SDS011;12268;52.110;5.548;2023-07-29T03:23:48;19.42;;;9.40;;
24084;SDS011;12268;52.110;5.548;2023-07-29T03:26:13;14.00;;;8.98;;
24084;SDS011;12268;52.110;5.548;2023-07-29T03:28:42;13.95;;;8.60;;
24084;SDS011;12268;52.110;5.548;2023-07-29T03:31:08;15.48;;;9.45;;
24084;SDS011;12268;52.110;5.548;2023-07-29T03:33:35;15.68;;;8.88;;
24084;SDS011;12268;52.110;5.548;2023-07-29T03:36:00;13.23;;;8.02;;
24084;SDS011;12268;52.110;5.548;2023-07-29T03:38:26;16.23;;;7.85;;
24084;SDS011;12268;52.110;5.548;2023-07-29T03:40:52;14.40;;;8.48;;
24084;SDS011;12268;52.110;5.548;2023-07-29T03:43:18;15.43;;;8.45;;
24084;SDS011;12268;52.110;5.548;2023-07-29T03:45:44;17.10;;;7.80;;
24084;SDS011;12268;52.110;5.548;2023-07-29T03:48:09;15.70;;;7.88;;
24084;SDS011;12268;52.110;5.548;2023-07-29T03:50:36;15.43;;;7.88;;
24084;SDS011;12268;52.110;5.548;2023-07-29T03:53:02;15.15;;;7.80;;
24084;SDS011;12268;52.110;5.548;2023-07-29T03:55:28;18.30;;;7.65;;
24084;SDS011;12268;52.110;5.548;2023-07-29T03:57:55;17.10;;;8.30;;
24084;SDS011;12268;52.110;5.548;2023-07-29T04:00:21;14.48;;;8.23;;
24084;SDS011;12268;52.110;5.548;2023-07-29T04:02:47;14.25;;;8.20;;
24084;SDS011;12268;52.110;5.548;2023-07-29T04:05:12;15.50;;;7.95;;
24084;SDS011;12268;52.110;5.548;2023-07-29T04:07:38;16.35;;;8.18;;
24084;SDS011;12268;52.110;5.548;2023-07-29T04:10:04;13.23;;;8.30;;
24084;SDS011;12268;52.110;5.548;2023-07-29T04:12:30;12.80;;;7.90;;
24084;SDS011;12268;52.110;5.548;2023-07-29T04:14:56;18.05;;;8.15;;
24084;SDS011;12268;52.110;5.548;2023-07-29T04:17:21;13.65;;;8.38;;
24084;SDS011;12268;52.110;5.548;2023-07-29T04:19:47;12.60;;;7.80;;
24084;SDS011;12268;52.110;5.548;2023-07-29T04:22:14;13.95;;;7.55;;
24084;SDS011;12268;52.110;5.548;2023-07-29T04:24:40;11.88;;;7.80;;
24084;SDS011;12268;52.110;5.548;2023-07-29T04:27:06;11.07;;;6.93;;
24084;SDS011;12268;52.110;5.548;2023-07-29T04:29:31;11.20;;;6.88;;
24084;SDS011;12268;52.110;5.548;2023-07-29T04:31:57;10.60;;;6.70;;
24084;SDS011;12268;52.110;5.548;2023-07-29T04:34:22;10.93;;;7.10;;
24084;SDS011;12268;52.110;5.548;2023-07-29T04:36:48;11.52;;;6.80;;
24084;SDS011;12268;52.110;5.548;2023-07-29T04:39:13;10.80;;;6.50;;
24084;SDS011;12268;52.110;5.548;2023-07-29T04:41:40;11.15;;;6.78;;
24084;SDS011;12268;52.110;5.548;2023-07-29T04:44:05;13.25;;;6.57;;
24084;SDS011;12268;52.110;5.548;2023-07-29T04:46:31;10.02;;;6.20;;
24084;SDS011;12268;52.110;5.548;2023-07-29T04:48:57;12.27;;;6.45;;
24084;SDS011;12268;52.110;5.548;2023-07-29T04:51:23;9.70;;;6.00;;
24084;SDS011;12268;52.110;5.548;2023-07-29T04:53:49;9.13;;;5.97;;
24084;SDS011;12268;52.110;5.548;2023-07-29T04:56:15;11.02;;;7.20;;
24084;SDS011;12268;52.110;5.548;2023-07-29T04:58:40;11.23;;;6.13;;
24084;SDS011;12268;52.110;5.548;2023-07-29T05:01:06;10.68;;;6.00;;
24084;SDS011;12268;52.110;5.548;2023-07-29T05:03:31;11.15;;;5.65;;
24084;SDS011;12268;52.110;5.548;2023-07-29T05:05:57;10.95;;;6.38;;
24084;SDS011;12268;52.110;5.548;2023-07-29T05:08:24;14.35;;;6.00;;
24084;SDS011;12268;52.110;5.548;2023-07-29T05:10:50;9.05;;;5.75;;
24084;SDS011;12268;52.110;5.548;2023-07-29T05:13:17;10.10;;;6.00;;
24084;SDS011;12268;52.110;5.548;2023-07-29T05:15:43;9.35;;;5.07;;
24084;SDS011;12268;52.110;5.548;2023-07-29T05:18:08;9.30;;;5.63;;
24084;SDS011;12268;52.110;5.548;2023-07-29T05:20:34;8.38;;;5.05;;
24084;SDS011;12268;52.110;5.548;2023-07-29T05:23:00;9.25;;;5.35;;
24084;SDS011;12268;52.110;5.548;2023-07-29T05:25:26;7.00;;;4.80;;
24084;SDS011;12268;52.110;5.548;2023-07-29T05:27:52;9.80;;;4.80;;
24084;SDS011;12268;52.110;5.548;2023-07-29T05:30:17;9.27;;;5.10;;
24084;SDS011;12268;52.110;5.548;2023-07-29T05:32:43;11.15;;;5.28;;
24084;SDS011;12268;52.110;5.548;2023-07-29T05:35:09;9.13;;;5.20;;
24084;SDS011;12268;52.110;5.548;2023-07-29T05:37:35;10.52;;;5.40;;
24084;SDS011;12268;52.110;5.548;2023-07-29T05:40:03;9.45;;;4.78;;
24084;SDS011;12268;52.110;5.548;2023-07-29T05:42:29;9.35;;;5.32;;
24084;SDS011;12268;52.110;5.548;2023-07-29T05:44:54;7.88;;;4.97;;
24084;SDS011;12268;52.110;5.548;2023-07-29T05:47:20;9.35;;;5.68;;
24084;SDS011;12268;52.110;5.548;2023-07-29T05:49:45;13.48;;;6.07;;
24084;SDS011;12268;52.110;5.548;2023-07-29T05:52:11;11.25;;;6.10;;
24084;SDS011;12268;52.110;5.548;2023-07-29T05:54:36;13.38;;;5.88;;
24084;SDS011;12268;52.110;5.548;2023-07-29T05:57:02;11.77;;;5.57;;
24084;SDS011;12268;52.110;5.548;2023-07-29T05:59:28;8.13;;;5.75;;
24084;SDS011;12268;52.110;5.548;2023-07-29T06:01:54;10.60;;;6.72;;
24084;SDS011;12268;52.110;5.548;2023-07-29T06:04:20;11.38;;;6.07;;
24084;SDS011;12268;52.110;5.548;2023-07-29T06:06:45;9.30;;;5.68;;
24084;SDS011;12268;52.110;5.548;2023-07-29T06:09:11;10.60;;;6.25;;
24084;SDS011;12268;52.110;5.548;2023-07-29T06:11:36;10.13;;;6.05;;
24084;SDS011;12268;52.110;5.548;2023-07-29T06:14:02;12.30;;;6.60;;
24084;SDS011;12268;52.110;5.548;2023-07-29T06:16:27;11.25;;;6.63;;
24084;SDS011;12268;52.110;5.548;2023-07-29T06:18:53;12.25;;;6.78;;
24084;SDS011;12268;52.110;5.548;2023-07-29T06:21:19;14.73;;;6.72;;
24084;SDS011;12268;52.110;5.548;2023-07-29T06:23:45;10.32;;;6.45;;
24084;SDS011;12268;52.110;5.548;2023-07-29T06:26:11;10.60;;;6.20;;
24084;SDS011;12268;52.110;5.548;2023-07-29T06:28:36;13.40;;;7.00;;
24084;SDS011;12268;52.110;5.548;2023-07-29T06:31:02;11.32;;;6.38;;
24084;SDS011;12268;52.110;5.548;2023-07-29T06:33:27;13.98;;;6.80;;
24084;SDS011;12268;52.110;5.548;2023-07-29T06:35:53;13.18;;;6.68;;
24084;SDS011;12268;52.110;5.548;2023-07-29T06:38:18;10.95;;;6.63;;
24084;SDS011;12268;52.110;5.548;2023-07-29T06:40:47;12.27;;;6.70;;
24084;SDS011;12268;52.110;5.548;2023-07-29T06:43:13;11.77;;;6.63;;
24084;SDS011;12268;52.110;5.548;2023-07-29T06:45:38;14.00;;;6.97;;
24084;SDS011;12268;52.110;5.548;2023-07-29T06:48:04;8.98;;;6.03;;
24084;SDS011;12268;52.110;5.548;2023-07-29T06:50:30;10.77;;;6.57;;
24084;SDS011;12268;52.110;5.548;2023-07-29T06:52:55;13.77;;;6.97;;
24084;SDS011;12268;52.110;5.548;2023-07-29T06:55:21;10.50;;;6.97;;
24084;SDS011;12268;52.110;5.548;2023-07-29T06:57:46;10.57;;;7.15;;
24084;SDS011;12268;52.110;5.548;2023-07-29T07:00:12;11.52;;;7.28;;
24084;SDS011;12268;52.110;5.548;2023-07-29T07:02:38;13.55;;;7.78;;
24084;SDS011;12268;52.110;5.548;2023-07-29T07:05:03;12.88;;;8.15;;
24084;SDS011;12268;52.110;5.548;2023-07-29T07:07:29;12.07;;;7.45;;
24084;SDS011;12268;52.110;5.548;2023-07-29T07:09:55;15.57;;;8.27;;
24084;SDS011;12268;52.110;5.548;2023-07-29T07:12:21;12.57;;;8.95;;
24084;SDS011;12268;52.110;5.548;2023-07-29T07:14:47;15.07;;;8.63;;
24084;SDS011;12268;52.110;5.548;2023-07-29T07:17:12;9.68;;;7.95;;
24084;SDS011;12268;52.110;5.548;2023-07-29T07:19:38;14.25;;;8.90;;
24084;SDS011;12268;52.110;5.548;2023-07-29T07:22:04;12.18;;;8.70;;
24084;SDS011;12268;52.110;5.548;2023-07-29T07:24:29;15.80;;;9.55;;
24084;SDS011;12268;52.110;5.548;2023-07-29T07:26:55;13.00;;;9.13;;
24084;SDS011;12268;52.110;5.548;2023-07-29T07:29:21;13.40;;;10.15;;
24084;SDS011;12268;52.110;5.548;2023-07-29T07:31:52;14.98;;;10.32;;
24084;SDS011;12268;52.110;5.548;2023-07-29T07:34:22;15.38;;;9.93;;
24084;SDS011;12268;52.110;5.548;2023-07-29T07:36:48;16.08;;;10.02;;
24084;SDS011;12268;52.110;5.548;2023-07-29T07:39:13;13.98;;;10.65;;
24084;SDS011;12268;52.110;5.548;2023-07-29T07:41:40;12.55;;;9.52;;
24084;SDS011;12268;52.110;5.548;2023-07-29T07:44:06;11.60;;;10.10;;
24084;SDS011;12268;52.110;5.548;2023-07-29T07:46:32;12.40;;;9.63;;
24084;SDS011;12268;52.110;5.548;2023-07-29T07:48:57;14.30;;;9.32;;
24084;SDS011;12268;52.110;5.548;2023-07-29T07:51:23;13.95;;;8.95;;
24084;SDS011;12268;52.110;5.548;2023-07-29T07:53:48;10.38;;;8.82;;
24084;SDS011;12268;52.110;5.548;2023-07-29T07:56:14;12.40;;;9.15;;
24084;SDS011;12268;52.110;5.548;2023-07-29T07:58:40;9.95;;;8.93;;
24084;SDS011;12268;52.110;5.548;2023-07-29T08:01:06;14.38;;;8.63;;
24084;SDS011;12268;52.110;5.548;2023-07-29T08:03:33;13.02;;;8.20;;
24084;SDS011;12268;52.110;5.548;2023-07-29T08:05:59;10.27;;;7.90;;
24084;SDS011;12268;52.110;5.548;2023-07-29T08:08:25;10.95;;;7.70;;
24084;SDS011;12268;52.110;5.548;2023-07-29T08:10:52;10.75;;;8.95;;
24084;SDS011;12268;52.110;5.548;2023-07-29T08:13:19;10.65;;;7.30;;
24084;SDS011;12268;52.110;5.548;2023-07-29T08:15:46;9.90;;;8.23;;
24084;SDS011;12268;52.110;5.548;2023-07-29T08:18:15;9.80;;;7.72;;
24084;SDS011;12268;52.110;5.548;2023-07-29T08:20:42;10.38;;;8.32;;
24084;SDS011;12268;52.110;5.548;2023-07-29T08:23:17;10.15;;;8.85;;
24084;SDS011;12268;52.110;5.548;2023-07-29T08:25:42;8.70;;;7.78;;
24084;SDS011;12268;52.110;5.548;2023-07-29T08:28:08;14.05;;;8.00;;
24084;SDS011;12268;52.110;5.548;2023-07-29T08:30:33;10.00;;;7.75;;
24084;SDS011;12268;52.110;5.548;2023-07-29T08:32:59;14.07;;;7.63;;
24084;SDS011;12268;52.110;5.548;2023-07-29T08:35:24;12.80;;;8.13;;
24084;SDS011;12268;52.110;5.548;2023-07-29T08:37:50;10.25;;;7.03;;
24084;SDS011;12268;52.110;5.548;2023-07-29T08:40:15;11.10;;;6.35;;
24084;SDS011;12268;52.110;5.548;2023-07-29T08:42:41;10.05;;;6.40;;
24084;SDS011;12268;52.110;5.548;2023-07-29T08:45:10;8.05;;;5.82;;
24084;SDS011;12268;52.110;5.548;2023-07-29T08:47:36;9.35;;;5.82;;
24084;SDS011;12268;52.110;5.548;2023-07-29T08:50:02;6.38;;;4.68;;
24084;SDS011;12268;52.110;5.548;2023-07-29T08:52:29;6.10;;;4.50;;
24084;SDS011;12268;52.110;5.548;2023-07-29T08:54:57;5.50;;;4.13;;
24084;SDS011;12268;52.110;5.548;2023-07-29T08:57:23;7.03;;;3.97;;
24084;SDS011;12268;52.110;5.548;2023-07-29T08:59:49;7.13;;;4.72;;
24084;SDS011;12268;52.110;5.548;2023-07-29T09:02:14;5.53;;;3.80;;
24084;SDS011;12268;52.110;5.548;2023-07-29T09:04:40;5.80;;;4.07;;
24084;SDS011;12268;52.110;5.548;2023-07-29T09:07:05;6.15;;;4.30;;
24084;SDS011;12268;52.110;5.548;2023-07-29T09:09:32;7.03;;;4.00;;
24084;SDS011;12268;52.110;5.548;2023-07-29T09:11:58;8.20;;;5.00;;
24084;SDS011;12268;52.110;5.548;2023-07-29T09:14:24;8.35;;;5.10;;
24084;SDS011;12268;52.110;5.548;2023-07-29T09:16:49;7.30;;;5.63;;
24084;SDS011;12268;52.110;5.548;2023-07-29T09:19:15;6.43;;;4.97;;
24084;SDS011;12268;52.110;5.548;2023-07-29T09:21:41;7.88;;;5.40;;
24084;SDS011;12268;52.110;5.548;2023-07-29T09:24:07;6.68;;;5.38;;
24084;SDS011;12268;52.110;5.548;2023-07-29T09:26:33;10.82;;;5.18;;
24084;SDS011;12268;52.110;5.548;2023-07-29T09:28:59;6.97;;;6.13;;
24084;SDS011;12268;52.110;5.548;2023-07-29T09:31:26;8.05;;;5.68;;
24084;SDS011;12268;52.110;5.548;2023-07-29T09:33:58;6.43;;;5.63;;
24084;SDS011;12268;52.110;5.548;2023-07-29T09:36:26;6.63;;;5.60;;
24084;SDS011;12268;52.110;5.548;2023-07-29T09:38:52;6.13;;;4.72;;
24084;SDS011;12268;52.110;5.548;2023-07-29T09:41:24;8.85;;;4.72;;
24084;SDS011;12268;52.110;5.548;2023-07-29T09:44:01;6.80;;;4.53;;
24084;SDS011;12268;52.110;5.548;2023-07-29T09:46:35;8.55;;;5.30;;
24084;SDS011;12268;52.110;5.548;2023-07-29T09:49:03;5.30;;;4.80;;
24084;SDS011;12268;52.110;5.548;2023-07-29T09:51:29;7.10;;;4.78;;
24084;SDS011;12268;52.110;5.548;2023-07-29T09:53:55;7.45;;;4.70;;
24084;SDS011;12268;52.110;5.548;2023-07-29T09:56:25;11.02;;;5.35;;
24084;SDS011;12268;52.110;5.548;2023-07-29T09:58:56;7.80;;;5.72;;
24084;SDS011;12268;52.110;5.548;2023-07-29T10:01:23;10.50;;;5.47;;
24084;SDS011;12268;52.110;5.548;2023-07-29T10:03:49;6.82;;;5.30;;
24084;SDS011;12268;52.110;5.548;2023-07-29T10:06:14;6.03;;;4.38;;
24084;SDS011;12268;52.110;5.548;2023-07-29T10:08:40;14.43;;;4.88;;
24084;SDS011;12268;52.110;5.548;2023-07-29T10:11:08;5.38;;;4.38;;
24084;SDS011;12268;52.110;5.548;2023-07-29T10:13:35;11.05;;;4.18;;
24084;SDS011;12268;52.110;5.548;2023-07-29T10:16:02;6.28;;;3.97;;
24084;SDS011;12268;52.110;5.548;2023-07-29T10:18:29;4.35;;;3.47;;
24084;SDS011;12268;52.110;5.548;2023-07-29T10:20:59;5.30;;;4.20;;
24084;SDS011;12268;52.110;5.548;2023-07-29T10:23:26;4.22;;;3.67;;
24084;SDS011;12268;52.110;5.548;2023-07-29T10:26:02;5.18;;;3.60;;
24084;SDS011;12268;52.110;5.548;2023-07-29T10:28:29;7.43;;;5.43;;
24084;SDS011;12268;52.110;5.548;2023-07-29T10:30:56;8.27;;;5.50;;
24084;SDS011;12268;52.110;5.548;2023-07-29T10:33:22;7.20;;;5.90;;
24084;SDS011;12268;52.110;5.548;2023-07-29T10:35:47;6.60;;;5.70;;
24084;SDS011;12268;52.110;5.548;2023-07-29T10:38:14;5.55;;;4.82;;
24084;SDS011;12268;52.110;5.548;2023-07-29T10:40:45;6.35;;;5.28;;
24084;SDS011;12268;52.110;5.548;2023-07-29T10:43:11;7.18;;;5.18;;
24084;SDS011;12268;52.110;5.548;2023-07-29T10:45:39;5.90;;;5.25;;
24084;SDS011;12268;52.110;5.548;2023-07-29T10:48:12;4.72;;;2.97;;
24084;SDS011;12268;52.110;5.548;2023-07-29T10:53:52;6.57;;;2.78;;
24084;SDS011;12268;52.110;5.548;2023-07-29T10:56:26;4.38;;;2.67;;
24084;SDS011;12268;52.110;5.548;2023-07-29T10:58:57;3.90;;;2.75;;
24084;SDS011;12268;52.110;5.548;2023-07-29T11:01:41;5.18;;;2.70;;
24084;SDS011;12268;52.110;5.548;2023-07-29T11:10:15;3.83;;;2.80;;
24084;SDS011;12268;52.110;5.548;2023-07-29T11:15:13;4.65;;;3.22;;
24084;SDS011;12268;52.110;5.548;2023-07-29T11:17:40;5.03;;;3.67;;
24084;SDS011;12268;52.110;5.548;2023-07-29T11:20:07;5.40;;;3.58;;
24084;SDS011;12268;52.110;5.548;2023-07-29T11:22:33;7.05;;;3.55;;
24084;SDS011;12268;52.110;5.548;2023-07-29T11:25:00;4.93;;;3.75;;
24084;SDS011;12268;52.110;5.548;2023-07-29T11:27:25;4.47;;;3.80;;
24084;SDS011;12268;52.110;5.548;2023-07-29T11:29:56;5.75;;;4.50;;
24084;SDS011;12268;52.110;5.548;2023-07-29T11:32:22;4.93;;;4.03;;
24084;SDS011;12268;52.110;5.548;2023-07-29T11:34:48;5.38;;;3.35;;
24084;SDS011;12268;52.110;5.548;2023-07-29T11:37:13;5.75;;;3.97;;
24084;SDS011;12268;52.110;5.548;2023-07-29T11:39:39;9.05;;;3.83;;
24084;SDS011;12268;52.110;5.548;2023-07-29T11:42:06;6.30;;;3.25;;
24084;SDS011;12268;52.110;5.548;2023-07-29T11:44:31;5.82;;;3.53;;
24084;SDS011;12268;52.110;5.548;2023-07-29T11:46:57;5.50;;;3.38;;
24084;SDS011;12268;52.110;5.548;2023-07-29T11:49:22;8.95;;;3.60;;
24084;SDS011;12268;52.110;5.548;2023-07-29T11:51:48;6.72;;;4.28;;
24084;SDS011;12268;52.110;5.548;2023-07-29T11:54:14;5.53;;;4.30;;
24084;SDS011;12268;52.110;5.548;2023-07-29T11:56:40;8.32;;;5.15;;
24084;SDS011;12268;52.110;5.548;2023-07-29T11:59:06;7.35;;;5.50;;
24084;SDS011;12268;52.110;5.548;2023-07-29T12:01:32;7.13;;;5.68;;
24084;SDS011;12268;52.110;5.548;2023-07-29T12:03:58;8.13;;;6.35;;
24084;SDS011;12268;52.110;5.548;2023-07-29T12:06:24;7.60;;;6.78;;
24084;SDS011;12268;52.110;5.548;2023-07-29T12:08:50;11.70;;;7.18;;
24084;SDS011;12268;52.110;5.548;2023-07-29T12:11:16;6.60;;;6.00;;
24084;SDS011;12268;52.110;5.548;2023-07-29T12:13:42;6.60;;;5.38;;
24084;SDS011;12268;52.110;5.548;2023-07-29T12:16:08;6.75;;;5.13;;
24084;SDS011;12268;52.110;5.548;2023-07-29T12:18:34;7.07;;;4.45;;
24084;SDS011;12268;52.110;5.548;2023-07-29T12:21:01;6.88;;;4.93;;
24084;SDS011;12268;52.110;5.548;2023-07-29T12:23:27;5.82;;;4.70;;
24084;SDS011;12268;52.110;5.548;2023-07-29T12:25:57;7.00;;;4.80;;
24084;SDS011;12268;52.110;5.548;2023-07-29T12:28:24;5.95;;;4.68;;
24084;SDS011;12268;52.110;5.548;2023-07-29T12:30:53;5.90;;;4.68;;
24084;SDS011;12268;52.110;5.548;2023-07-29T12:33:35;5.47;;;4.50;;
24084;SDS011;12268;52.110;5.548;2023-07-29T12:36:02;6.43;;;3.60;;
24084;SDS011;12268;52.110;5.548;2023-07-29T12:38:28;5.10;;;3.70;;
24084;SDS011;12268;52.110;5.548;2023-07-29T12:40:54;6.53;;;3.45;;
24084;SDS011;12268;52.110;5.548;2023-07-29T12:43:20;6.78;;;3.17;;
24084;SDS011;12268;52.110;5.548;2023-07-29T12:45:48;4.65;;;3.85;;
24084;SDS011;12268;52.110;5.548;2023-07-29T12:48:14;4.70;;;3.15;;
24084;SDS011;12268;52.110;5.548;2023-07-29T12:50:40;4.03;;;3.42;;
24084;SDS011;12268;52.110;5.548;2023-07-29T12:53:06;4.50;;;3.40;;
24084;SDS011;12268;52.110;5.548;2023-07-29T12:55:34;8.35;;;3.53;;
24084;SDS011;12268;52.110;5.548;2023-07-29T12:57:59;4.75;;;2.55;;
24084;SDS011;12268;52.110;5.548;2023-07-29T13:00:25;4.38;;;3.10;;
24084;SDS011;12268;52.110;5.548;2023-07-29T13:02:51;3.40;;;2.70;;
24084;SDS011;12268;52.110;5.548;2023-07-29T13:05:17;3.28;;;2.72;;
24084;SDS011;12268;52.110;5.548;2023-07-29T13:07:43;5.15;;;2.40;;
24084;SDS011;12268;52.110;5.548;2023-07-29T13:10:09;4.75;;;2.20;;
24084;SDS011;12268;52.110;5.548;2023-07-29T13:12:35;2.90;;;2.10;;
24084;SDS011;12268;52.110;5.548;2023-07-29T13:15:01;3.65;;;2.25;;
24084;SDS011;12268;52.110;5.548;2023-07-29T13:17:27;2.83;;;2.40;;
24084;SDS011;12268;52.110;5.548;2023-07-29T13:19:52;3.42;;;2.30;;
24084;SDS011;12268;52.110;5.548;2023-07-29T13:22:19;3.03;;;2.42;;
24084;SDS011;12268;52.110;5.548;2023-07-29T13:24:45;3.72;;;2.72;;
24084;SDS011;12268;52.110;5.548;2023-07-29T13:27:11;3.20;;;2.25;;
24084;SDS011;12268;52.110;5.548;2023-07-29T13:29:36;3.85;;;2.63;;
24084;SDS011;12268;52.110;5.548;2023-07-29T13:32:02;5.30;;;2.50;;
24084;SDS011;12268;52.110;5.548;2023-07-29T13:34:28;3.03;;;2.53;;
24084;SDS011;12268;52.110;5.548;2023-07-29T13:36:53;3.65;;;2.40;;
24084;SDS011;12268;52.110;5.548;2023-07-29T13:39:19;4.25;;;2.75;;
24084;SDS011;12268;52.110;5.548;2023-07-29T13:41:44;4.07;;;3.40;;
24084;SDS011;12268;52.110;5.548;2023-07-29T13:44:10;5.38;;;3.72;;
24084;SDS011;12268;52.110;5.548;2023-07-29T13:46:35;6.28;;;3.95;;
24084;SDS011;12268;52.110;5.548;2023-07-29T13:49:01;8.07;;;5.05;;
24084;SDS011;12268;52.110;5.548;2023-07-29T13:51:28;7.05;;;5.68;;
24084;SDS011;12268;52.110;5.548;2023-07-29T13:53:53;8.32;;;6.18;;
24084;SDS011;12268;52.110;5.548;2023-07-29T13:56:21;6.50;;;5.78;;
24084;SDS011;12268;52.110;5.548;2023-07-29T13:58:47;7.03;;;6.07;;
24084;SDS011;12268;52.110;5.548;2023-07-29T14:01:12;7.13;;;5.47;;
24084;SDS011;12268;52.110;5.548;2023-07-29T14:03:38;5.95;;;5.35;;
24084;SDS011;12268;52.110;5.548;2023-07-29T14:06:03;8.05;;;5.10;;
24084;SDS011;12268;52.110;5.548;2023-07-29T14:08:29;6.38;;;4.90;;
24084;SDS011;12268;52.110;5.548;2023-07-29T14:10:55;5.72;;;5.13;;
24084;SDS011;12268;52.110;5.548;2023-07-29T14:13:21;5.70;;;5.10;;
24084;SDS011;12268;52.110;5.548;2023-07-29T14:15:46;7.10;;;5.20;;
24084;SDS011;12268;52.110;5.548;2023-07-29T14:18:12;5.78;;;5.00;;
24084;SDS011;12268;52.110;5.548;2023-07-29T14:20:38;5.70;;;5.10;;
24084;SDS011;12268;52.110;5.548;2023-07-29T14:23:04;4.82;;;3.33;;
24084;SDS011;12268;52.110;5.548;2023-07-29T14:25:29;4.75;;;4.03;;
24084;SDS011;12268;52.110;5.548;2023-07-29T14:27:55;7.20;;;4.18;;
24084;SDS011;12268;52.110;5.548;2023-07-29T14:30:20;5.35;;;3.95;;
24084;SDS011;12268;52.110;5.548;2023-07-29T14:32:46;5.20;;;3.80;;
24084;SDS011;12268;52.110;5.548;2023-07-29T14:35:13;5.57;;;3.72;;
24084;SDS011;12268;52.110;5.548;2023-07-29T14:37:38;4.78;;;3.40;;
24084;SDS011;12268;52.110;5.548;2023-07-29T14:40:04;6.80;;;3.13;;
24084;SDS011;12268;52.110;5.548;2023-07-29T14:42:30;4.65;;;3.00;;
24084;SDS011;12268;52.110;5.548;2023-07-29T14:44:56;4.25;;;3.25;;
24084;SDS011;12268;52.110;5.548;2023-07-29T14:47:21;4.80;;;3.33;;
24084;SDS011;12268;52.110;5.548;2023-07-29T14:49:47;3.25;;;2.63;;
24084;SDS011;12268;52.110;5.548;2023-07-29T14:52:12;4.68;;;2.90;;